Pagrindinis puslapis
METAR-TAF:

METAR-TAF

Oro uostai :

Nuakšotas, Mauritanija

platuma: 18-18-36N, ilguma: 015-58-11W, Aukštis: 3 m

Dabartinis oras

Ataskaita buvo paskelbta 42 minutes, ne 14:30 UTC
Vėjas 14 kt iš Rytų/Šiaurės Rytų
Temperatūra 30°C
Drėgmė 21%
Slėgis 1011 hPa
Matomumas: 6000 m

METAR: GQNO 171430Z 07014KT 6000 NSC 30/05 Q1011 NOSIG

Laikas: 15:12 (15:12 UTC)

Prognozė

Ataskaita buvo paskelbta 4 valandos ir 12 minutes, ne 11:00 UTC
Prognozė galioja nuo 17 metu 12 UTC su 18 metu 18 UTC
Vėjas 12 kt iš Šiaurės Rytų
Matomumas: 7000 m

TAF: GQNO 171100Z 1712/1818 05012KT 7000 NSC

Orai ataskaitas ir orų prognozės (METAR, TAF).

turimą stotys yra geltonos ir raudonos taškus žemėlapyje.

Perkelti pele per norėdami pamatyti stoties vardą.

Tada spustelėkite, norėdami matyti oro stebėjimo ir prognozės.

Norėdami pakeisti žemėlapį: spustelėkite ant žalios mygtukų su juodo kryžiaus žemyn,; žalią mygtuką su brūkšneliu, jei norite nutolinti; arba žalių rodyklių gretimoms žemėlapius.


METAR-TAF: